KRAL

Riverside Municipal Airport

Riverside, California, USA
METAR KRAL 190653Z AUTO 22003KT 10SM CLR 14/07 A3005 RMK AO2 SLP162 T01440072
Observed Flight Rules
Jan-19 @ 06:53 UTC (18 minutes ago) Visual Flight Rules
Wind Visibility Clouds
220° at 3 knots 10 miles
  • Clear skies
Temperatures Readings
Current 14°C / 57°F
Dewpoint 7°C / 45°F
Humidity 63%
Altimeter 30.05" Hg
Pressure 1016.2 hPa
Elevation 252
METAR KRAL 190653Z AUTO 22003KT 10SM CLR 14/07 A3005 RMK AO2 SLP162 T01440072
Observed Flight Rules
Jan-19 @ 06:53 UTC
(18 minutes ago)
VFR
Wind Visibility
220° at 3 knots 10 miles
Clouds
  • Clear skies
Temperature Dewpoint
14°C / 57°F 7°C / 45°F
Humidity Altimeter Pressure
63% 30.05" Hg 1016.2 hPa